sensor_id;sensor_type;location;lat;lon;timestamp;temperature;humidity
15386;DHT22;7791;47.246;9.648;2023-04-24T00:00:31;10.10;99.90
15386;DHT22;7791;47.246;9.648;2023-04-24T00:08:23;9.90;99.90
15386;DHT22;7791;47.246;9.648;2023-04-24T00:11:04;9.80;99.90
15386;DHT22;7791;47.246;9.648;2023-04-24T00:13:43;9.80;99.90
15386;DHT22;7791;47.246;9.648;2023-04-24T00:16:16;9.80;99.90
15386;DHT22;7791;47.246;9.648;2023-04-24T00:18:52;9.80;99.90
15386;DHT22;7791;47.246;9.648;2023-04-24T00:21:30;9.70;99.90
15386;DHT22;7791;47.246;9.648;2023-04-24T00:24:07;9.60;99.90
15386;DHT22;7791;47.246;9.648;2023-04-24T00:26:35;9.50;99.90
15386;DHT22;7791;47.246;9.648;2023-04-24T00:29:06;9.50;99.90
15386;DHT22;7791;47.246;9.648;2023-04-24T00:31:39;9.50;99.90
15386;DHT22;7791;47.246;9.648;2023-04-24T00:34:10;9.50;99.90
15386;DHT22;7791;47.246;9.648;2023-04-24T00:36:46;9.50;99.90
15386;DHT22;7791;47.246;9.648;2023-04-24T00:39:22;9.50;99.90
15386;DHT22;7791;47.246;9.648;2023-04-24T00:42:20;9.40;99.90
15386;DHT22;7791;47.246;9.648;2023-04-24T00:44:58;9.30;99.90
15386;DHT22;7791;47.246;9.648;2023-04-24T00:47:34;9.30;99.90
15386;DHT22;7791;47.246;9.648;2023-04-24T00:50:16;9.50;99.90
15386;DHT22;7791;47.246;9.648;2023-04-24T00:52:51;9.40;99.90
15386;DHT22;7791;47.246;9.648;2023-04-24T00:58:15;9.30;99.90
15386;DHT22;7791;47.246;9.648;2023-04-24T01:00:45;9.10;99.90
15386;DHT22;7791;47.246;9.648;2023-04-24T01:03:21;9.20;99.90
15386;DHT22;7791;47.246;9.648;2023-04-24T01:05:58;9.20;99.90
15386;DHT22;7791;47.246;9.648;2023-04-24T01:11:29;9.40;99.90
15386;DHT22;7791;47.246;9.648;2023-04-24T01:14:20;9.30;99.90
15386;DHT22;7791;47.246;9.648;2023-04-24T01:16:59;9.40;99.90
15386;DHT22;7791;47.246;9.648;2023-04-24T01:19:31;9.40;99.90
15386;DHT22;7791;47.246;9.648;2023-04-24T01:22:15;9.40;99.90
15386;DHT22;7791;47.246;9.648;2023-04-24T01:24:47;9.30;99.90
15386;DHT22;7791;47.246;9.648;2023-04-24T01:27:20;9.40;99.90
15386;DHT22;7791;47.246;9.648;2023-04-24T01:29:56;9.30;99.90
15386;DHT22;7791;47.246;9.648;2023-04-24T01:32:29;9.30;99.90
15386;DHT22;7791;47.246;9.648;2023-04-24T01:35:04;9.20;99.90
15386;DHT22;7791;47.246;9.648;2023-04-24T01:37:38;9.10;99.90
15386;DHT22;7791;47.246;9.648;2023-04-24T01:40:05;9.10;99.90
15386;DHT22;7791;47.246;9.648;2023-04-24T01:42:35;9.10;99.90
15386;DHT22;7791;47.246;9.648;2023-04-24T01:45:26;9.10;99.90
15386;DHT22;7791;47.246;9.648;2023-04-24T01:48:01;9.20;99.90
15386;DHT22;7791;47.246;9.648;2023-04-24T01:50:34;9.20;99.90
15386;DHT22;7791;47.246;9.648;2023-04-24T01:56:12;9.00;99.90
15386;DHT22;7791;47.246;9.648;2023-04-24T01:58:43;9.10;99.90
15386;DHT22;7791;47.246;9.648;2023-04-24T02:01:19;9.10;99.90
15386;DHT22;7791;47.246;9.648;2023-04-24T02:03:52;9.10;99.90
15386;DHT22;7791;47.246;9.648;2023-04-24T02:06:25;9.20;99.90
15386;DHT22;7791;47.246;9.648;2023-04-24T02:09:09;9.20;99.90
15386;DHT22;7791;47.246;9.648;2023-04-24T02:11:42;9.30;99.90
15386;DHT22;7791;47.246;9.648;2023-04-24T02:14:17;9.30;99.90
15386;DHT22;7791;47.246;9.648;2023-04-24T02:16:56;9.40;99.90
15386;DHT22;7791;47.246;9.648;2023-04-24T02:19:28;9.40;99.90
15386;DHT22;7791;47.246;9.648;2023-04-24T02:21:56;9.50;99.90
15386;DHT22;7791;47.246;9.648;2023-04-24T02:24:27;9.50;99.90
15386;DHT22;7791;47.246;9.648;2023-04-24T02:27:05;9.50;99.90
15386;DHT22;7791;47.246;9.648;2023-04-24T02:29:37;9.60;99.90
15386;DHT22;7791;47.246;9.648;2023-04-24T02:32:14;9.50;99.90
15386;DHT22;7791;47.246;9.648;2023-04-24T02:34:50;9.60;99.90
15386;DHT22;7791;47.246;9.648;2023-04-24T02:37:19;9.50;99.90
15386;DHT22;7791;47.246;9.648;2023-04-24T02:39:55;9.40;99.90
15386;DHT22;7791;47.246;9.648;2023-04-24T02:42:33;9.30;99.90
15386;DHT22;7791;47.246;9.648;2023-04-24T02:45:03;9.40;99.90
15386;DHT22;7791;47.246;9.648;2023-04-24T02:47:35;9.40;99.90
15386;DHT22;7791;47.246;9.648;2023-04-24T02:50:08;9.30;99.90
15386;DHT22;7791;47.246;9.648;2023-04-24T02:52:43;9.30;99.90
15386;DHT22;7791;47.246;9.648;2023-04-24T02:55:18;9.30;99.90
15386;DHT22;7791;47.246;9.648;2023-04-24T02:58:03;9.30;99.90
15386;DHT22;7791;47.246;9.648;2023-04-24T03:00:49;9.20;99.90
15386;DHT22;7791;47.246;9.648;2023-04-24T03:03:34;9.20;99.90
15386;DHT22;7791;47.246;9.648;2023-04-24T03:06:02;9.20;99.90
15386;DHT22;7791;47.246;9.648;2023-04-24T03:08:45;9.20;99.90
15386;DHT22;7791;47.246;9.648;2023-04-24T03:11:19;9.20;99.90
15386;DHT22;7791;47.246;9.648;2023-04-24T03:14:05;9.30;99.90
15386;DHT22;7791;47.246;9.648;2023-04-24T03:16:44;9.30;99.90
15386;DHT22;7791;47.246;9.648;2023-04-24T03:19:16;9.20;99.90
15386;DHT22;7791;47.246;9.648;2023-04-24T03:21:54;9.10;99.90
15386;DHT22;7791;47.246;9.648;2023-04-24T03:24:40;9.10;99.90
15386;DHT22;7791;47.246;9.648;2023-04-24T03:27:26;9.10;99.90
15386;DHT22;7791;47.246;9.648;2023-04-24T03:29:56;9.10;99.90
15386;DHT22;7791;47.246;9.648;2023-04-24T03:32:27;9.10;99.90
15386;DHT22;7791;47.246;9.648;2023-04-24T03:35:02;9.10;99.90
15386;DHT22;7791;47.246;9.648;2023-04-24T03:37:35;9.00;99.90
15386;DHT22;7791;47.246;9.648;2023-04-24T03:40:11;8.90;99.90
15386;DHT22;7791;47.246;9.648;2023-04-24T03:42:42;8.90;99.90
15386;DHT22;7791;47.246;9.648;2023-04-24T03:45:23;8.80;99.90
15386;DHT22;7791;47.246;9.648;2023-04-24T03:48:05;8.80;99.90
15386;DHT22;7791;47.246;9.648;2023-04-24T03:50:38;8.70;99.90
15386;DHT22;7791;47.246;9.648;2023-04-24T03:53:18;8.60;99.90
15386;DHT22;7791;47.246;9.648;2023-04-24T03:56:07;8.70;99.90
15386;DHT22;7791;47.246;9.648;2023-04-24T03:58:52;8.80;99.90
15386;DHT22;7791;47.246;9.648;2023-04-24T04:04:13;8.80;99.90
15386;DHT22;7791;47.246;9.648;2023-04-24T04:06:50;8.80;99.90
15386;DHT22;7791;47.246;9.648;2023-04-24T04:09:18;8.90;99.90
15386;DHT22;7791;47.246;9.648;2023-04-24T04:12:10;8.90;99.90
15386;DHT22;7791;47.246;9.648;2023-04-24T04:14:38;8.80;99.90
15386;DHT22;7791;47.246;9.648;2023-04-24T04:17:09;8.80;99.90
15386;DHT22;7791;47.246;9.648;2023-04-24T04:19:40;8.80;99.90
15386;DHT22;7791;47.246;9.648;2023-04-24T04:25:07;8.80;99.90
15386;DHT22;7791;47.246;9.648;2023-04-24T04:27:37;8.50;99.90
15386;DHT22;7791;47.246;9.648;2023-04-24T04:30:08;8.50;99.90
15386;DHT22;7791;47.246;9.648;2023-04-24T04:32:50;8.60;99.90
15386;DHT22;7791;47.246;9.648;2023-04-24T04:35:18;8.80;99.90
15386;DHT22;7791;47.246;9.648;2023-04-24T04:37:53;8.70;99.90
15386;DHT22;7791;47.246;9.648;2023-04-24T04:40:21;8.80;99.90
15386;DHT22;7791;47.246;9.648;2023-04-24T04:45:57;8.90;99.90
15386;DHT22;7791;47.246;9.648;2023-04-24T04:48:39;9.00;99.90
15386;DHT22;7791;47.246;9.648;2023-04-24T04:51:24;9.10;99.90
15386;DHT22;7791;47.246;9.648;2023-04-24T04:54:05;9.10;99.90
15386;DHT22;7791;47.246;9.648;2023-04-24T04:56:58;9.10;99.90
15386;DHT22;7791;47.246;9.648;2023-04-24T04:59:30;9.10;99.90
15386;DHT22;7791;47.246;9.648;2023-04-24T05:04:46;9.20;99.90
15386;DHT22;7791;47.246;9.648;2023-04-24T05:07:24;9.20;99.90
15386;DHT22;7791;47.246;9.648;2023-04-24T05:09:54;9.30;99.90
15386;DHT22;7791;47.246;9.648;2023-04-24T05:12:29;9.30;99.90
15386;DHT22;7791;47.246;9.648;2023-04-24T05:15:01;9.40;99.90
15386;DHT22;7791;47.246;9.648;2023-04-24T05:17:27;9.30;99.90
15386;DHT22;7791;47.246;9.648;2023-04-24T05:26:13;9.30;99.90
15386;DHT22;7791;47.246;9.648;2023-04-24T05:28:56;9.30;99.90
15386;DHT22;7791;47.246;9.648;2023-04-24T05:31:28;9.20;99.90
15386;DHT22;7791;47.246;9.648;2023-04-24T05:33:59;9.20;99.90
15386;DHT22;7791;47.246;9.648;2023-04-24T05:38:59;9.20;99.90
15386;DHT22;7791;47.246;9.648;2023-04-24T05:44:25;9.20;99.90
15386;DHT22;7791;47.246;9.648;2023-04-24T05:47:03;9.30;99.90
15386;DHT22;7791;47.246;9.648;2023-04-24T05:49:32;9.30;99.90
15386;DHT22;7791;47.246;9.648;2023-04-24T05:52:08;9.40;99.90
15386;DHT22;7791;47.246;9.648;2023-04-24T05:54:40;9.40;99.90
15386;DHT22;7791;47.246;9.648;2023-04-24T05:57:17;9.40;99.90
15386;DHT22;7791;47.246;9.648;2023-04-24T06:02:34;9.40;99.90
15386;DHT22;7791;47.246;9.648;2023-04-24T06:05:05;9.30;99.90
15386;DHT22;7791;47.246;9.648;2023-04-24T06:07:39;9.30;99.90
15386;DHT22;7791;47.246;9.648;2023-04-24T06:10:15;9.30;99.90
15386;DHT22;7791;47.246;9.648;2023-04-24T06:12:52;9.20;99.90
15386;DHT22;7791;47.246;9.648;2023-04-24T06:15:37;9.20;99.90
15386;DHT22;7791;47.246;9.648;2023-04-24T06:18:26;9.30;99.90
15386;DHT22;7791;47.246;9.648;2023-04-24T06:20:59;9.40;99.90
15386;DHT22;7791;47.246;9.648;2023-04-24T06:26:45;9.50;99.90
15386;DHT22;7791;47.246;9.648;2023-04-24T06:32:06;9.80;99.90
15386;DHT22;7791;47.246;9.648;2023-04-24T06:34:40;9.80;99.90
15386;DHT22;7791;47.246;9.648;2023-04-24T06:37:20;9.80;99.90
15386;DHT22;7791;47.246;9.648;2023-04-24T06:39:59;9.80;99.90
15386;DHT22;7791;47.246;9.648;2023-04-24T06:42:39;9.70;99.90
15386;DHT22;7791;47.246;9.648;2023-04-24T06:45:12;9.70;99.90
15386;DHT22;7791;47.246;9.648;2023-04-24T06:47:45;9.60;99.90
15386;DHT22;7791;47.246;9.648;2023-04-24T06:53:09;9.40;99.90
15386;DHT22;7791;47.246;9.648;2023-04-24T06:55:42;9.40;99.90
15386;DHT22;7791;47.246;9.648;2023-04-24T06:58:20;9.20;99.90
15386;DHT22;7791;47.246;9.648;2023-04-24T07:00:54;9.10;99.90
15386;DHT22;7791;47.246;9.648;2023-04-24T07:03:32;9.20;99.90
15386;DHT22;7791;47.246;9.648;2023-04-24T07:06:04;9.10;99.90
15386;DHT22;7791;47.246;9.648;2023-04-24T07:08:46;9.10;99.90
15386;DHT22;7791;47.246;9.648;2023-04-24T07:11:19;9.10;99.90
15386;DHT22;7791;47.246;9.648;2023-04-24T07:13:51;9.20;99.90
15386;DHT22;7791;47.246;9.648;2023-04-24T07:16:24;9.40;99.90
15386;DHT22;7791;47.246;9.648;2023-04-24T07:18:55;9.40;99.90
15386;DHT22;7791;47.246;9.648;2023-04-24T07:21:28;9.60;99.90
15386;DHT22;7791;47.246;9.648;2023-04-24T07:24:01;9.70;99.90
15386;DHT22;7791;47.246;9.648;2023-04-24T07:26:31;9.70;99.90
15386;DHT22;7791;47.246;9.648;2023-04-24T07:29:04;9.90;99.90
15386;DHT22;7791;47.246;9.648;2023-04-24T07:31:41;9.90;99.90
15386;DHT22;7791;47.246;9.648;2023-04-24T07:34:12;9.80;99.90
15386;DHT22;7791;47.246;9.648;2023-04-24T07:36:40;9.70;99.90
15386;DHT22;7791;47.246;9.648;2023-04-24T07:39:13;9.80;99.90
15386;DHT22;7791;47.246;9.648;2023-04-24T07:41:53;10.10;99.90
15386;DHT22;7791;47.246;9.648;2023-04-24T07:44:24;10.00;99.90
15386;DHT22;7791;47.246;9.648;2023-04-24T07:47:02;10.20;99.90
15386;DHT22;7791;47.246;9.648;2023-04-24T07:49:38;10.30;99.90
15386;DHT22;7791;47.246;9.648;2023-04-24T07:52:09;10.60;99.90
15386;DHT22;7791;47.246;9.648;2023-04-24T07:54:58;10.80;99.90
15386;DHT22;7791;47.246;9.648;2023-04-24T07:57:37;10.90;99.90
15386;DHT22;7791;47.246;9.648;2023-04-24T08:00:04;11.10;99.90
15386;DHT22;7791;47.246;9.648;2023-04-24T08:02:54;10.90;99.90
15386;DHT22;7791;47.246;9.648;2023-04-24T08:05:27;10.90;99.90
15386;DHT22;7791;47.246;9.648;2023-04-24T08:07:57;11.70;99.90
15386;DHT22;7791;47.246;9.648;2023-04-24T08:10:38;13.10;99.90
15386;DHT22;7791;47.246;9.648;2023-04-24T08:13:10;13.40;99.90
15386;DHT22;7791;47.246;9.648;2023-04-24T08:15:50;13.60;99.90
15386;DHT22;7791;47.246;9.648;2023-04-24T08:21:22;15.20;99.90
15386;DHT22;7791;47.246;9.648;2023-04-24T08:23:49;15.90;99.90
15386;DHT22;7791;47.246;9.648;2023-04-24T08:26:26;16.70;99.90
15386;DHT22;7791;47.246;9.648;2023-04-24T08:28:55;17.60;99.90
15386;DHT22;7791;47.246;9.648;2023-04-24T08:31:28;18.10;99.90
15386;DHT22;7791;47.246;9.648;2023-04-24T08:33:59;18.80;99.90
15386;DHT22;7791;47.246;9.648;2023-04-24T08:36:42;18.20;99.90
15386;DHT22;7791;47.246;9.648;2023-04-24T08:39:27;17.30;99.90
15386;DHT22;7791;47.246;9.648;2023-04-24T08:41:53;16.60;99.90
15386;DHT22;7791;47.246;9.648;2023-04-24T08:44:19;16.00;99.90
15386;DHT22;7791;47.246;9.648;2023-04-24T08:46:50;15.00;99.90
15386;DHT22;7791;47.246;9.648;2023-04-24T08:49:20;14.50;99.90
15386;DHT22;7791;47.246;9.648;2023-04-24T08:51:55;13.80;99.90
15386;DHT22;7791;47.246;9.648;2023-04-24T08:54:28;13.10;99.90
15386;DHT22;7791;47.246;9.648;2023-04-24T08:57:17;12.70;99.90
15386;DHT22;7791;47.246;9.648;2023-04-24T08:59:55;12.50;99.90
15386;DHT22;7791;47.246;9.648;2023-04-24T09:02:42;12.30;99.90
15386;DHT22;7791;47.246;9.648;2023-04-24T09:05:27;12.20;99.90
15386;DHT22;7791;47.246;9.648;2023-04-24T09:08:01;11.40;99.90
15386;DHT22;7791;47.246;9.648;2023-04-24T09:10:34;11.00;99.90
15386;DHT22;7791;47.246;9.648;2023-04-24T09:15:57;10.90;99.90
15386;DHT22;7791;47.246;9.648;2023-04-24T09:18:27;11.80;99.90
15386;DHT22;7791;47.246;9.648;2023-04-24T09:21:20;13.00;99.90
15386;DHT22;7791;47.246;9.648;2023-04-24T09:24:02;13.70;99.90
15386;DHT22;7791;47.246;9.648;2023-04-24T09:26:39;14.30;99.90
15386;DHT22;7791;47.246;9.648;2023-04-24T09:29:26;14.70;99.90
15386;DHT22;7791;47.246;9.648;2023-04-24T09:31:58;15.20;99.90
15386;DHT22;7791;47.246;9.648;2023-04-24T09:34:32;16.40;99.90
15386;DHT22;7791;47.246;9.648;2023-04-24T09:36:57;18.10;99.90
15386;DHT22;7791;47.246;9.648;2023-04-24T09:39:24;19.90;99.90
15386;DHT22;7791;47.246;9.648;2023-04-24T09:42:08;19.90;99.90
15386;DHT22;7791;47.246;9.648;2023-04-24T09:47:37;20.70;98.70
15386;DHT22;7791;47.246;9.648;2023-04-24T09:50:16;21.20;98.60
15386;DHT22;7791;47.246;9.648;2023-04-24T09:52:55;20.70;99.00
15386;DHT22;7791;47.246;9.648;2023-04-24T09:55:27;21.40;99.80
15386;DHT22;7791;47.246;9.648;2023-04-24T09:58:03;20.60;95.70
15386;DHT22;7791;47.246;9.648;2023-04-24T10:00:41;20.10;96.60
15386;DHT22;7791;47.246;9.648;2023-04-24T10:03:10;20.80;98.00
15386;DHT22;7791;47.246;9.648;2023-04-24T10:05:38;21.80;92.40
15386;DHT22;7791;47.246;9.648;2023-04-24T10:10:51;22.80;91.20
15386;DHT22;7791;47.246;9.648;2023-04-24T10:13:34;23.30;89.50
15386;DHT22;7791;47.246;9.648;2023-04-24T10:18:50;23.70;86.80
15386;DHT22;7791;47.246;9.648;2023-04-24T10:21:23;24.10;88.00
15386;DHT22;7791;47.246;9.648;2023-04-24T10:26:52;22.00;90.00
15386;DHT22;7791;47.246;9.648;2023-04-24T10:29:24;16.40;97.80
15386;DHT22;7791;47.246;9.648;2023-04-24T10:32:03;14.60;99.90
15386;DHT22;7791;47.246;9.648;2023-04-24T10:34:42;14.10;99.90
15386;DHT22;7791;47.246;9.648;2023-04-24T11:12:31;11.40;99.90
15386;DHT22;7791;47.246;9.648;2023-04-24T11:43:37;14.80;99.90
15386;DHT22;7791;47.246;9.648;2023-04-24T11:46:06;15.40;99.90
15386;DHT22;7791;47.246;9.648;2023-04-24T11:48:39;15.60;99.90
15386;DHT22;7791;47.246;9.648;2023-04-24T11:51:17;15.10;99.90
15386;DHT22;7791;47.246;9.648;2023-04-24T11:53:46;14.40;99.90
15386;DHT22;7791;47.246;9.648;2023-04-24T11:56:27;15.00;99.90
15386;DHT22;7791;47.246;9.648;2023-04-24T11:59:17;15.40;99.90
15386;DHT22;7791;47.246;9.648;2023-04-24T12:01:50;16.00;99.90
15386;DHT22;7791;47.246;9.648;2023-04-24T12:04:25;17.10;99.90
15386;DHT22;7791;47.246;9.648;2023-04-24T12:07:02;19.40;99.90
15386;DHT22;7791;47.246;9.648;2023-04-24T12:10:00;20.70;95.60
15386;DHT22;7791;47.246;9.648;2023-04-24T12:12:36;19.60;94.90
15386;DHT22;7791;47.246;9.648;2023-04-24T12:15:11;18.60;95.30
15386;DHT22;7791;47.246;9.648;2023-04-24T12:20:31;16.10;97.40
15386;DHT22;7791;47.246;9.648;2023-04-24T12:23:32;15.40;99.90
15386;DHT22;7791;47.246;9.648;2023-04-24T12:26:14;15.50;98.00
15386;DHT22;7791;47.246;9.648;2023-04-24T12:28:46;16.50;98.30
15386;DHT22;7791;47.246;9.648;2023-04-24T12:31:18;17.30;97.60
15386;DHT22;7791;47.246;9.648;2023-04-24T12:33:51;18.10;95.70
15386;DHT22;7791;47.246;9.648;2023-04-24T12:36:24;18.10;95.80
15386;DHT22;7791;47.246;9.648;2023-04-24T12:38:55;18.30;95.20
15386;DHT22;7791;47.246;9.648;2023-04-24T12:41:33;18.20;94.10
15386;DHT22;7791;47.246;9.648;2023-04-24T12:46:52;18.20;95.70
15386;DHT22;7791;47.246;9.648;2023-04-24T13:27:37;19.50;82.40
15386;DHT22;7791;47.246;9.648;2023-04-24T13:33:23;18.70;90.50
15386;DHT22;7791;47.246;9.648;2023-04-24T13:36:00;15.30;98.60
15386;DHT22;7791;47.246;9.648;2023-04-24T13:44:34;13.00;99.90
15386;DHT22;7791;47.246;9.648;2023-04-24T13:47:21;13.20;99.90
15386;DHT22;7791;47.246;9.648;2023-04-24T13:49:54;13.40;99.90
15386;DHT22;7791;47.246;9.648;2023-04-24T13:52:27;13.10;99.90
15386;DHT22;7791;47.246;9.648;2023-04-24T13:55:02;12.70;99.90
15386;DHT22;7791;47.246;9.648;2023-04-24T13:57:48;12.60;99.90
15386;DHT22;7791;47.246;9.648;2023-04-24T14:00:25;12.50;99.90
15386;DHT22;7791;47.246;9.648;2023-04-24T14:02:58;12.10;99.90
15386;DHT22;7791;47.246;9.648;2023-04-24T14:05:31;12.00;99.90
15386;DHT22;7791;47.246;9.648;2023-04-24T14:08:18;11.80;99.90
15386;DHT22;7791;47.246;9.648;2023-04-24T14:10:52;11.70;99.90
15386;DHT22;7791;47.246;9.648;2023-04-24T14:16:14;11.10;99.90
15386;DHT22;7791;47.246;9.648;2023-04-24T14:18:46;11.00;99.90
15386;DHT22;7791;47.246;9.648;2023-04-24T14:21:14;11.40;99.90
15386;DHT22;7791;47.246;9.648;2023-04-24T14:23:44;12.00;99.90
15386;DHT22;7791;47.246;9.648;2023-04-24T14:26:34;12.60;99.90
15386;DHT22;7791;47.246;9.648;2023-04-24T14:29:04;13.40;99.90
15386;DHT22;7791;47.246;9.648;2023-04-24T14:31:42;13.70;99.90
15386;DHT22;7791;47.246;9.648;2023-04-24T14:34:16;13.80;99.90
15386;DHT22;7791;47.246;9.648;2023-04-24T14:36:46;13.50;99.90
15386;DHT22;7791;47.246;9.648;2023-04-24T14:39:18;13.90;99.90
15386;DHT22;7791;47.246;9.648;2023-04-24T14:42:01;14.30;99.90
15386;DHT22;7791;47.246;9.648;2023-04-24T14:44:31;14.50;99.90
15386;DHT22;7791;47.246;9.648;2023-04-24T14:47:13;15.20;99.90
15386;DHT22;7791;47.246;9.648;2023-04-24T14:49:52;15.60;99.90
15386;DHT22;7791;47.246;9.648;2023-04-24T14:52:33;15.50;99.90
15386;DHT22;7791;47.246;9.648;2023-04-24T14:55:06;15.20;99.90
15386;DHT22;7791;47.246;9.648;2023-04-24T14:57:47;14.80;99.90
15386;DHT22;7791;47.246;9.648;2023-04-24T15:00:19;14.20;99.90
15386;DHT22;7791;47.246;9.648;2023-04-24T15:02:49;13.70;99.90
15386;DHT22;7791;47.246;9.648;2023-04-24T15:05:19;13.80;99.90
15386;DHT22;7791;47.246;9.648;2023-04-24T15:07:55;13.90;99.90
15386;DHT22;7791;47.246;9.648;2023-04-24T15:10:44;14.20;99.90
15386;DHT22;7791;47.246;9.648;2023-04-24T15:13:18;14.10;99.90
15386;DHT22;7791;47.246;9.648;2023-04-24T15:15:53;13.80;99.90
15386;DHT22;7791;47.246;9.648;2023-04-24T15:18:21;13.60;99.90
15386;DHT22;7791;47.246;9.648;2023-04-24T15:20:59;13.60;99.90
15386;DHT22;7791;47.246;9.648;2023-04-24T15:23:35;14.20;99.90
15386;DHT22;7791;47.246;9.648;2023-04-24T15:26:07;14.50;99.90
15386;DHT22;7791;47.246;9.648;2023-04-24T15:28:43;14.90;99.90
15386;DHT22;7791;47.246;9.648;2023-04-24T15:31:15;15.10;99.90
15386;DHT22;7791;47.246;9.648;2023-04-24T15:33:47;15.20;99.90
15386;DHT22;7791;47.246;9.648;2023-04-24T15:39:05;15.30;99.90
15386;DHT22;7791;47.246;9.648;2023-04-24T15:41:37;14.60;99.90
15386;DHT22;7791;47.246;9.648;2023-04-24T15:44:09;14.10;99.90
15386;DHT22;7791;47.246;9.648;2023-04-24T15:46:38;13.70;99.90
15386;DHT22;7791;47.246;9.648;2023-04-24T15:49:12;13.50;99.90
15386;DHT22;7791;47.246;9.648;2023-04-24T15:51:42;13.30;99.90
15386;DHT22;7791;47.246;9.648;2023-04-24T15:54:10;13.00;99.90
15386;DHT22;7791;47.246;9.648;2023-04-24T15:56:48;13.30;99.90
15386;DHT22;7791;47.246;9.648;2023-04-24T15:59:21;13.80;99.90
15386;DHT22;7791;47.246;9.648;2023-04-24T16:02:00;14.40;99.90
15386;DHT22;7791;47.246;9.648;2023-04-24T16:04:37;15.10;99.90
15386;DHT22;7791;47.246;9.648;2023-04-24T16:07:17;15.50;99.90
15386;DHT22;7791;47.246;9.648;2023-04-24T16:10:04;15.80;99.90
15386;DHT22;7791;47.246;9.648;2023-04-24T16:12:36;15.80;99.70
15386;DHT22;7791;47.246;9.648;2023-04-24T16:15:03;15.70;99.90
15386;DHT22;7791;47.246;9.648;2023-04-24T16:17:39;15.10;99.90
15386;DHT22;7791;47.246;9.648;2023-04-24T16:20:15;14.80;99.60
15386;DHT22;7791;47.246;9.648;2023-04-24T16:22:47;14.70;99.90
15386;DHT22;7791;47.246;9.648;2023-04-24T16:25:38;14.40;99.90
15386;DHT22;7791;47.246;9.648;2023-04-24T16:28:10;14.30;99.90
15386;DHT22;7791;47.246;9.648;2023-04-24T16:30:46;13.40;99.90
15386;DHT22;7791;47.246;9.648;2023-04-24T16:33:29;12.80;99.90
15386;DHT22;7791;47.246;9.648;2023-04-24T16:36:07;12.80;99.90
15386;DHT22;7791;47.246;9.648;2023-04-24T16:38:43;12.60;99.90
15386;DHT22;7791;47.246;9.648;2023-04-24T16:41:25;12.40;99.90
15386;DHT22;7791;47.246;9.648;2023-04-24T16:43:58;12.10;99.90
15386;DHT22;7791;47.246;9.648;2023-04-24T16:46:31;12.00;99.90
15386;DHT22;7791;47.246;9.648;2023-04-24T16:49:05;11.90;99.90
15386;DHT22;7791;47.246;9.648;2023-04-24T16:51:39;11.80;99.90
15386;DHT22;7791;47.246;9.648;2023-04-24T16:57:05;11.70;99.90
15386;DHT22;7791;47.246;9.648;2023-04-24T16:59:37;11.60;99.90
15386;DHT22;7791;47.246;9.648;2023-04-24T17:02:10;11.50;99.90
15386;DHT22;7791;47.246;9.648;2023-04-24T17:04:46;11.50;99.90
15386;DHT22;7791;47.246;9.648;2023-04-24T17:07:20;11.60;99.90
15386;DHT22;7791;47.246;9.648;2023-04-24T17:09:56;11.80;99.90
15386;DHT22;7791;47.246;9.648;2023-04-24T17:12:28;11.90;99.90
15386;DHT22;7791;47.246;9.648;2023-04-24T17:15:00;11.90;99.90
15386;DHT22;7791;47.246;9.648;2023-04-24T17:17:26;11.70;99.90
15386;DHT22;7791;47.246;9.648;2023-04-24T17:19:54;11.50;99.90
15386;DHT22;7791;47.246;9.648;2023-04-24T17:25:24;11.30;99.90
15386;DHT22;7791;47.246;9.648;2023-04-24T17:27:56;11.20;99.90
15386;DHT22;7791;47.246;9.648;2023-04-24T17:30:30;11.00;99.90
15386;DHT22;7791;47.246;9.648;2023-04-24T17:33:06;10.90;99.90
15386;DHT22;7791;47.246;9.648;2023-04-24T17:35:36;10.70;99.90
15386;DHT22;7791;47.246;9.648;2023-04-24T17:38:33;10.50;99.90
15386;DHT22;7791;47.246;9.648;2023-04-24T17:41:08;10.50;99.90
15386;DHT22;7791;47.246;9.648;2023-04-24T17:43:45;10.50;99.90
15386;DHT22;7791;47.246;9.648;2023-04-24T17:49:06;10.60;99.90
15386;DHT22;7791;47.246;9.648;2023-04-24T17:51:39;10.50;99.90
15386;DHT22;7791;47.246;9.648;2023-04-24T17:54:27;10.50;99.90
15386;DHT22;7791;47.246;9.648;2023-04-24T17:56:55;10.30;99.90
15386;DHT22;7791;47.246;9.648;2023-04-24T17:59:31;10.30;99.90
15386;DHT22;7791;47.246;9.648;2023-04-24T18:02:07;10.40;99.90
15386;DHT22;7791;47.246;9.648;2023-04-24T18:04:51;10.50;99.90
15386;DHT22;7791;47.246;9.648;2023-04-24T18:07:23;10.70;99.90
15386;DHT22;7791;47.246;9.648;2023-04-24T18:10:11;10.80;99.90
15386;DHT22;7791;47.246;9.648;2023-04-24T18:12:49;10.90;99.90
15386;DHT22;7791;47.246;9.648;2023-04-24T18:15:33;11.00;99.90
15386;DHT22;7791;47.246;9.648;2023-04-24T18:18:04;10.90;99.90
15386;DHT22;7791;47.246;9.648;2023-04-24T18:20:38;10.70;99.90
15386;DHT22;7791;47.246;9.648;2023-04-24T18:23:20;10.40;99.90
15386;DHT22;7791;47.246;9.648;2023-04-24T18:25:52;9.90;99.90
15386;DHT22;7791;47.246;9.648;2023-04-24T18:28:34;9.70;99.90
15386;DHT22;7791;47.246;9.648;2023-04-24T18:31:02;9.60;99.90
15386;DHT22;7791;47.246;9.648;2023-04-24T18:33:44;9.50;99.90
15386;DHT22;7791;47.246;9.648;2023-04-24T18:36:15;9.50;99.90
15386;DHT22;7791;47.246;9.648;2023-04-24T18:38:54;9.40;99.90
15386;DHT22;7791;47.246;9.648;2023-04-24T18:41:42;9.40;99.90
15386;DHT22;7791;47.246;9.648;2023-04-24T18:44:15;9.30;99.90
15386;DHT22;7791;47.246;9.648;2023-04-24T18:46:40;9.30;99.90
15386;DHT22;7791;47.246;9.648;2023-04-24T18:49:06;9.30;99.90
15386;DHT22;7791;47.246;9.648;2023-04-24T18:51:34;9.30;99.90
15386;DHT22;7791;47.246;9.648;2023-04-24T18:54:12;9.30;99.90
15386;DHT22;7791;47.246;9.648;2023-04-24T18:56:47;9.50;99.90
15386;DHT22;7791;47.246;9.648;2023-04-24T19:02:13;9.50;99.90
15386;DHT22;7791;47.246;9.648;2023-04-24T19:04:47;9.50;99.90
15386;DHT22;7791;47.246;9.648;2023-04-24T19:07:31;9.40;99.90
15386;DHT22;7791;47.246;9.648;2023-04-24T19:10:06;9.50;99.90
15386;DHT22;7791;47.246;9.648;2023-04-24T19:12:55;9.60;99.90
15386;DHT22;7791;47.246;9.648;2023-04-24T19:15:24;9.70;99.90
15386;DHT22;7791;47.246;9.648;2023-04-24T19:18:05;9.80;99.90
15386;DHT22;7791;47.246;9.648;2023-04-24T19:20:41;9.90;99.90
15386;DHT22;7791;47.246;9.648;2023-04-24T19:23:24;9.90;99.90
15386;DHT22;7791;47.246;9.648;2023-04-24T19:25:54;9.80;99.90
15386;DHT22;7791;47.246;9.648;2023-04-24T19:28:37;9.90;99.90
15386;DHT22;7791;47.246;9.648;2023-04-24T19:31:19;9.90;99.90
15386;DHT22;7791;47.246;9.648;2023-04-24T19:33:55;9.90;99.90
15386;DHT22;7791;47.246;9.648;2023-04-24T19:36:30;9.90;99.90
15386;DHT22;7791;47.246;9.648;2023-04-24T19:39:21;10.00;99.90
15386;DHT22;7791;47.246;9.648;2023-04-24T19:41:53;10.00;99.90
15386;DHT22;7791;47.246;9.648;2023-04-24T19:44:33;10.00;99.90
15386;DHT22;7791;47.246;9.648;2023-04-24T19:47:09;9.90;99.90
15386;DHT22;7791;47.246;9.648;2023-04-24T19:49:52;10.00;99.90
15386;DHT22;7791;47.246;9.648;2023-04-24T19:52:29;10.00;99.90
15386;DHT22;7791;47.246;9.648;2023-04-24T19:55:02;10.10;99.90
15386;DHT22;7791;47.246;9.648;2023-04-24T19:57:35;10.10;99.90
15386;DHT22;7791;47.246;9.648;2023-04-24T20:00:03;9.90;99.90
15386;DHT22;7791;47.246;9.648;2023-04-24T20:02:43;9.80;99.90
15386;DHT22;7791;47.246;9.648;2023-04-24T20:05:18;9.60;99.90
15386;DHT22;7791;47.246;9.648;2023-04-24T20:07:56;9.50;99.90